sensor_id;sensor_type;location;lat;lon;timestamp;pressure;altitude;pressure_sealevel;temperature;humidity
28354;BME280;15603;50.878;8.036;2023-01-29T00:01:47;142557.69;;;-3.03;100.00
28354;BME280;15603;50.878;8.036;2023-01-29T00:04:14;142560.13;;;-3.02;100.00
28354;BME280;15603;50.878;8.036;2023-01-29T00:06:41;142555.31;;;-3.04;100.00
28354;BME280;15603;50.878;8.036;2023-01-29T00:09:07;142548.06;;;-3.07;100.00
28354;BME280;15603;50.878;8.036;2023-01-29T00:11:34;142538.47;;;-3.11;100.00
28354;BME280;15603;50.878;8.036;2023-01-29T00:14:01;142548.06;;;-3.07;100.00
28354;BME280;15603;50.878;8.036;2023-01-29T00:16:28;142557.69;;;-3.03;100.00
28354;BME280;15603;50.878;8.036;2023-01-29T00:18:55;142562.50;;;-3.01;100.00
28354;BME280;15603;50.878;8.036;2023-01-29T00:21:22;142555.31;;;-3.04;100.00
28354;BME280;15603;50.878;8.036;2023-01-29T00:23:49;142545.69;;;-3.08;100.00
28354;BME280;15603;50.878;8.036;2023-01-29T00:26:16;142542.06;;;-3.09;100.00
28354;BME280;15603;50.878;8.036;2023-01-29T00:28:46;142528.84;;;-3.15;100.00
28354;BME280;15603;50.878;8.036;2023-01-29T00:31:14;142515.63;;;-3.21;100.00
28354;BME280;15603;50.878;8.036;2023-01-29T00:33:42;142519.22;;;-3.19;100.00
28354;BME280;15603;50.878;8.036;2023-01-29T00:36:10;142520.41;;;-3.19;100.00
28354;BME280;15603;50.878;8.036;2023-01-29T00:38:37;142512.00;;;-3.22;100.00
28354;BME280;15603;50.878;8.036;2023-01-29T00:41:11;142507.19;;;-3.24;100.00
28354;BME280;15603;50.878;8.036;2023-01-29T00:43:57;142490.34;;;-3.31;100.00
28354;BME280;15603;50.878;8.036;2023-01-29T00:46:43;142480.72;;;-3.36;100.00
28354;BME280;15603;50.878;8.036;2023-01-29T00:49:09;142485.53;;;-3.33;100.00
28354;BME280;15603;50.878;8.036;2023-01-29T00:51:37;142485.53;;;-3.33;100.00
28354;BME280;15603;50.878;8.036;2023-01-29T00:54:04;142485.53;;;-3.33;100.00
28354;BME280;15603;50.878;8.036;2023-01-29T00:56:33;142489.16;;;-3.32;100.00
28354;BME280;15603;50.878;8.036;2023-01-29T00:59:00;142468.69;;;-3.41;100.00
28354;BME280;15603;50.878;8.036;2023-01-29T01:01:27;142454.25;;;-3.47;100.00
28354;BME280;15603;50.878;8.036;2023-01-29T01:04:13;142456.69;;;-3.46;100.00
28354;BME280;15603;50.878;8.036;2023-01-29T01:06:40;142447.06;;;-3.50;100.00
28354;BME280;15603;50.878;8.036;2023-01-29T01:09:08;142449.47;;;-3.49;100.00
28354;BME280;15603;50.878;8.036;2023-01-29T01:11:54;142433.84;;;-3.56;100.00
28354;BME280;15603;50.878;8.036;2023-01-29T01:14:21;142430.22;;;-3.57;100.00
28354;BME280;15603;50.878;8.036;2023-01-29T01:16:48;142432.59;;;-3.56;100.00
28354;BME280;15603;50.878;8.036;2023-01-29T01:19:15;142432.59;;;-3.56;100.00
28354;BME280;15603;50.878;8.036;2023-01-29T01:21:42;142423.00;;;-3.60;100.00
28354;BME280;15603;50.878;8.036;2023-01-29T01:24:13;142408.59;;;-3.66;100.00
28354;BME280;15603;50.878;8.036;2023-01-29T01:26:41;142413.38;;;-3.64;100.00
28354;BME280;15603;50.878;8.036;2023-01-29T01:29:07;142414.56;;;-3.64;100.00
28354;BME280;15603;50.878;8.036;2023-01-29T01:31:34;142402.59;;;-3.69;100.00
28354;BME280;15603;50.878;8.036;2023-01-29T01:34:01;142411.00;;;-3.65;100.00
28354;BME280;15603;50.878;8.036;2023-01-29T01:36:28;142402.59;;;-3.69;100.00
28354;BME280;15603;50.878;8.036;2023-01-29T01:38:57;142397.78;;;-3.71;100.00
28354;BME280;15603;50.878;8.036;2023-01-29T01:41:24;142389.34;;;-3.75;100.00
28354;BME280;15603;50.878;8.036;2023-01-29T01:46:21;142378.50;;;-3.79;100.00
28354;BME280;15603;50.878;8.036;2023-01-29T01:48:53;142368.91;;;-3.83;100.00
28354;BME280;15603;50.878;8.036;2023-01-29T01:51:22;142374.94;;;-3.81;100.00
28354;BME280;15603;50.878;8.036;2023-01-29T01:54:00;142362.91;;;-3.86;100.00
28354;BME280;15603;50.878;8.036;2023-01-29T01:56:30;142362.91;;;-3.86;100.00
28354;BME280;15603;50.878;8.036;2023-01-29T01:59:05;142352.09;;;-3.90;100.00
28354;BME280;15603;50.878;8.036;2023-01-29T02:01:32;142347.31;;;-3.92;100.00
28354;BME280;15603;50.878;8.036;2023-01-29T02:04:06;142340.06;;;-3.96;100.00
28354;BME280;15603;50.878;8.036;2023-01-29T02:06:53;142326.84;;;-4.01;100.00
28354;BME280;15603;50.878;8.036;2023-01-29T02:09:41;142318.44;;;-4.05;100.00
28354;BME280;15603;50.878;8.036;2023-01-29T02:12:13;142319.63;;;-4.04;100.00
28354;BME280;15603;50.878;8.036;2023-01-29T02:14:41;142310.00;;;-4.08;100.00
28354;BME280;15603;50.878;8.036;2023-01-29T02:17:10;142318.44;;;-4.05;100.00
28354;BME280;15603;50.878;8.036;2023-01-29T02:19:40;142103.38;;;-4.97;100.00
28354;BME280;15603;50.878;8.036;2023-01-29T02:22:17;142307.63;;;-4.09;100.00
28354;BME280;15603;50.878;8.036;2023-01-29T02:27:18;142319.63;;;-4.04;100.00
28354;BME280;15603;50.878;8.036;2023-01-29T02:30:03;142314.81;;;-4.06;100.00
28354;BME280;15603;50.878;8.036;2023-01-29T02:32:38;142302.81;;;-4.11;100.00
28354;BME280;15603;50.878;8.036;2023-01-29T02:35:14;142298.03;;;-4.13;100.00
28354;BME280;15603;50.878;8.036;2023-01-29T02:48:06;142255.94;;;-4.31;100.00
28354;BME280;15603;50.878;8.036;2023-01-29T02:50:38;142254.75;;;-4.32;100.00
28354;BME280;15603;50.878;8.036;2023-01-29T02:53:20;142240.34;;;-4.38;100.00
28354;BME280;15603;50.878;8.036;2023-01-29T02:56:01;142242.72;;;-4.37;100.00
28354;BME280;15603;50.878;8.036;2023-01-29T02:58:39;142249.94;;;-4.34;100.00
28354;BME280;15603;50.878;8.036;2023-01-29T03:01:09;142247.53;;;-4.35;100.00
28354;BME280;15603;50.878;8.036;2023-01-29T03:03:42;142223.50;;;-4.45;100.00
28354;BME280;15603;50.878;8.036;2023-01-29T03:06:30;142204.28;;;-4.54;100.00
28354;BME280;15603;50.878;8.036;2023-01-29T03:08:59;142197.06;;;-4.57;100.00
28354;BME280;15603;50.878;8.036;2023-01-29T03:11:29;142194.69;;;-4.58;100.00
28354;BME280;15603;50.878;8.036;2023-01-29T03:14:03;142204.28;;;-4.54;100.00
28354;BME280;15603;50.878;8.036;2023-01-29T03:16:36;142211.47;;;-4.50;100.00
28354;BME280;15603;50.878;8.036;2023-01-29T03:19:07;142213.91;;;-4.49;100.00
28354;BME280;15603;50.878;8.036;2023-01-29T03:21:39;142211.47;;;-4.50;100.00
28354;BME280;15603;50.878;8.036;2023-01-29T03:27:20;142204.28;;;-4.54;100.00
28354;BME280;15603;50.878;8.036;2023-01-29T03:30:08;142197.06;;;-4.57;100.00
28354;BME280;15603;50.878;8.036;2023-01-29T03:33:10;142192.28;;;-4.59;100.00
28354;BME280;15603;50.878;8.036;2023-01-29T03:35:39;142187.47;;;-4.61;100.00
28354;BME280;15603;50.878;8.036;2023-01-29T03:38:09;142180.25;;;-4.64;100.00
28354;BME280;15603;50.878;8.036;2023-01-29T03:40:59;142165.84;;;-4.70;100.00
28354;BME280;15603;50.878;8.036;2023-01-29T03:46:04;142159.84;;;-4.72;100.00
28354;BME280;15603;50.878;8.036;2023-01-29T03:48:38;142153.84;;;-4.75;100.00
28354;BME280;15603;50.878;8.036;2023-01-29T03:51:23;142170.63;;;-4.68;100.00
28354;BME280;15603;50.878;8.036;2023-01-29T03:56:31;142153.84;;;-4.75;100.00
28354;BME280;15603;50.878;8.036;2023-01-29T03:59:11;142144.19;;;-4.79;100.00
28354;BME280;15603;50.878;8.036;2023-01-29T04:02:35;142141.81;;;-4.80;100.00
28354;BME280;15603;50.878;8.036;2023-01-29T04:04:58;142141.81;;;-4.80;100.00
28354;BME280;15603;50.878;8.036;2023-01-29T04:07:28;142144.19;;;-4.79;100.00
28354;BME280;15603;50.878;8.036;2023-01-29T04:12:42;142139.41;;;-4.81;100.00
28354;BME280;15603;50.878;8.036;2023-01-29T04:15:13;142123.81;;;-4.88;100.00
28354;BME280;15603;50.878;8.036;2023-01-29T04:17:51;142129.81;;;-4.85;100.00
28354;BME280;15603;50.878;8.036;2023-01-29T04:20:24;142134.59;;;-4.83;100.00
28354;BME280;15603;50.878;8.036;2023-01-29T04:22:51;142132.22;;;-4.84;100.00
28354;BME280;15603;50.878;8.036;2023-01-29T04:25:20;142162.22;;;-4.71;100.00
28354;BME280;15603;50.878;8.036;2023-01-29T04:28:04;142138.22;;;-4.82;100.00
28354;BME280;15603;50.878;8.036;2023-01-29T04:33:21;142122.63;;;-4.88;100.00
28354;BME280;15603;50.878;8.036;2023-01-29T04:41:15;142062.53;;;-5.14;100.00
28354;BME280;15603;50.878;8.036;2023-01-29T04:43:46;142067.34;;;-5.12;100.00
28354;BME280;15603;50.878;8.036;2023-01-29T04:46:25;142064.97;;;-5.13;100.00
28354;BME280;15603;50.878;8.036;2023-01-29T04:59:04;142103.38;;;-4.97;100.00
28354;BME280;15603;50.878;8.036;2023-01-29T05:01:32;142129.81;;;-4.85;100.00
28354;BME280;15603;50.878;8.036;2023-01-29T05:04:02;142158.66;;;-4.73;100.00
28354;BME280;15603;50.878;8.036;2023-01-29T05:06:30;142157.41;;;-4.74;100.00
28354;BME280;15603;50.878;8.036;2023-01-29T05:08:58;142163.47;;;-4.71;100.00
28354;BME280;15603;50.878;8.036;2023-01-29T05:11:26;142149.06;;;-4.77;100.00
28354;BME280;15603;50.878;8.036;2023-01-29T05:13:55;142175.44;;;-4.66;100.00
28354;BME280;15603;50.878;8.036;2023-01-29T05:16:23;142162.22;;;-4.71;100.00
28354;BME280;15603;50.878;8.036;2023-01-29T05:18:51;142193.47;;;-4.58;100.00
28354;BME280;15603;50.878;8.036;2023-01-29T05:21:19;142224.69;;;-4.45;100.00
28354;BME280;15603;50.878;8.036;2023-01-29T05:23:46;142251.13;;;-4.34;100.00
28354;BME280;15603;50.878;8.036;2023-01-29T05:26:24;142242.72;;;-4.37;100.00
28354;BME280;15603;50.878;8.036;2023-01-29T05:29:11;142259.56;;;-4.30;100.00
28354;BME280;15603;50.878;8.036;2023-01-29T05:31:38;142230.72;;;-4.42;100.00
28354;BME280;15603;50.878;8.036;2023-01-29T05:34:05;142266.78;;;-4.27;100.00
28354;BME280;15603;50.878;8.036;2023-01-29T05:36:31;142249.94;;;-4.34;100.00
28354;BME280;15603;50.878;8.036;2023-01-29T05:38:58;142235.53;;;-4.40;100.00
28354;BME280;15603;50.878;8.036;2023-01-29T05:41:25;142247.53;;;-4.35;100.00
28354;BME280;15603;50.878;8.036;2023-01-29T05:43:52;142264.34;;;-4.28;100.00
28354;BME280;15603;50.878;8.036;2023-01-29T05:46:19;142233.09;;;-4.41;100.00
28354;BME280;15603;50.878;8.036;2023-01-29T05:48:46;142248.75;;;-4.35;100.00
28354;BME280;15603;50.878;8.036;2023-01-29T05:51:13;142219.88;;;-4.47;100.00
28354;BME280;15603;50.878;8.036;2023-01-29T05:53:39;142187.47;;;-4.61;100.00
28354;BME280;15603;50.878;8.036;2023-01-29T05:56:06;142173.06;;;-4.67;100.00
28354;BME280;15603;50.878;8.036;2023-01-29T05:58:33;142163.47;;;-4.71;100.00
28354;BME280;15603;50.878;8.036;2023-01-29T06:01:20;142185.09;;;-4.62;100.00
28354;BME280;15603;50.878;8.036;2023-01-29T06:03:47;142139.41;;;-4.81;100.00
28354;BME280;15603;50.878;8.036;2023-01-29T06:06:14;142137.03;;;-4.82;100.00
28354;BME280;15603;50.878;8.036;2023-01-29T06:08:41;142127.41;;;-4.86;100.00
28354;BME280;15603;50.878;8.036;2023-01-29T06:11:10;142120.19;;;-4.89;100.00
28354;BME280;15603;50.878;8.036;2023-01-29T06:13:37;142127.41;;;-4.86;100.00
28354;BME280;15603;50.878;8.036;2023-01-29T06:16:07;142117.81;;;-4.90;100.00
28354;BME280;15603;50.878;8.036;2023-01-29T06:18:34;142099.81;;;-4.98;100.00
28354;BME280;15603;50.878;8.036;2023-01-29T06:21:02;142104.59;;;-4.96;100.00
28354;BME280;15603;50.878;8.036;2023-01-29T06:23:29;142074.56;;;-5.09;100.00
28354;BME280;15603;50.878;8.036;2023-01-29T06:26:03;142062.53;;;-5.14;100.00
28354;BME280;15603;50.878;8.036;2023-01-29T06:28:30;142055.38;;;-5.17;100.00
28354;BME280;15603;50.878;8.036;2023-01-29T06:30:58;142066.16;;;-5.13;100.00
28354;BME280;15603;50.878;8.036;2023-01-29T06:33:42;142075.75;;;-5.08;100.00
28354;BME280;15603;50.878;8.036;2023-01-29T06:36:08;142052.94;;;-5.18;100.00
28354;BME280;15603;50.878;8.036;2023-01-29T06:38:35;142057.75;;;-5.16;100.00
28354;BME280;15603;50.878;8.036;2023-01-29T06:41:12;142048.16;;;-5.20;100.00
28354;BME280;15603;50.878;8.036;2023-01-29T06:43:42;142042.16;;;-5.23;100.00
28354;BME280;15603;50.878;8.036;2023-01-29T06:46:10;142036.16;;;-5.25;100.00
28354;BME280;15603;50.878;8.036;2023-01-29T06:48:37;142032.56;;;-5.27;100.00
28354;BME280;15603;50.878;8.036;2023-01-29T06:51:04;142033.75;;;-5.26;100.00
28354;BME280;15603;50.878;8.036;2023-01-29T06:53:32;142027.75;;;-5.29;100.00
28354;BME280;15603;50.878;8.036;2023-01-29T06:55:59;142020.53;;;-5.32;100.00
28354;BME280;15603;50.878;8.036;2023-01-29T06:58:26;142012.13;;;-5.36;100.00
28354;BME280;15603;50.878;8.036;2023-01-29T07:00:53;142015.75;;;-5.34;100.00
28354;BME280;15603;50.878;8.036;2023-01-29T07:03:20;142012.13;;;-5.36;100.00
28354;BME280;15603;50.878;8.036;2023-01-29T07:05:50;142016.94;;;-5.34;100.00
28354;BME280;15603;50.878;8.036;2023-01-29T07:08:18;142009.75;;;-5.37;100.00
28354;BME280;15603;50.878;8.036;2023-01-29T07:10:48;142009.75;;;-5.37;100.00
28354;BME280;15603;50.878;8.036;2023-01-29T07:13:15;142024.16;;;-5.30;100.00
28354;BME280;15603;50.878;8.036;2023-01-29T07:15:42;142060.16;;;-5.15;100.00
28354;BME280;15603;50.878;8.036;2023-01-29T07:18:10;142090.16;;;-5.02;100.00
28354;BME280;15603;50.878;8.036;2023-01-29T07:20:40;142125.00;;;-4.87;100.00
28354;BME280;15603;50.878;8.036;2023-01-29T07:23:09;142146.63;;;-4.78;100.00
28354;BME280;15603;50.878;8.036;2023-01-29T07:25:37;142183.84;;;-4.62;100.00
28354;BME280;15603;50.878;8.036;2023-01-29T07:28:04;142216.28;;;-4.48;100.00
28354;BME280;15603;50.878;8.036;2023-01-29T07:30:32;142235.53;;;-4.40;100.00
28354;BME280;15603;50.878;8.036;2023-01-29T07:33:05;142219.88;;;-4.47;100.00
28354;BME280;15603;50.878;8.036;2023-01-29T07:35:37;142242.72;;;-4.37;100.00
28354;BME280;15603;50.878;8.036;2023-01-29T07:38:05;142277.56;;;-4.22;100.00
28354;BME280;15603;50.878;8.036;2023-01-29T07:40:32;142293.22;;;-4.16;100.00
28354;BME280;15603;50.878;8.036;2023-01-29T07:43:00;142293.22;;;-4.16;100.00
28354;BME280;15603;50.878;8.036;2023-01-29T07:45:30;142312.44;;;-4.07;100.00
28354;BME280;15603;50.878;8.036;2023-01-29T07:47:57;142334.06;;;-3.98;100.00
28354;BME280;15603;50.878;8.036;2023-01-29T07:50:24;142343.69;;;-3.94;100.00
28354;BME280;15603;50.878;8.036;2023-01-29T07:52:54;142312.44;;;-4.07;100.00
28354;BME280;15603;50.878;8.036;2023-01-29T07:55:22;142331.66;;;-3.99;100.00
28354;BME280;15603;50.878;8.036;2023-01-29T07:57:55;142384.56;;;-3.77;100.00
28354;BME280;15603;50.878;8.036;2023-01-29T08:00:22;142370.13;;;-3.83;100.00
28354;BME280;15603;50.878;8.036;2023-01-29T08:02:49;142425.44;;;-3.59;100.00
28354;BME280;15603;50.878;8.036;2023-01-29T08:05:16;142477.09;;;-3.37;100.00
28354;BME280;15603;50.878;8.036;2023-01-29T08:07:43;142496.38;;;-3.29;100.00
28354;BME280;15603;50.878;8.036;2023-01-29T08:10:19;142499.94;;;-3.27;100.00
28354;BME280;15603;50.878;8.036;2023-01-29T08:12:46;142492.75;;;-3.30;100.00
28354;BME280;15603;50.878;8.036;2023-01-29T08:15:13;142504.75;;;-3.25;100.00
28354;BME280;15603;50.878;8.036;2023-01-29T08:17:40;142514.41;;;-3.21;100.00
28354;BME280;15603;50.878;8.036;2023-01-29T08:20:28;142518.00;;;-3.20;100.00
28354;BME280;15603;50.878;8.036;2023-01-29T08:23:02;142516.81;;;-3.20;100.00
28354;BME280;15603;50.878;8.036;2023-01-29T08:25:30;142544.47;;;-3.08;99.65
28354;BME280;15603;50.878;8.036;2023-01-29T08:27:58;142564.94;;;-3.00;99.02
28354;BME280;15603;50.878;8.036;2023-01-29T08:30:25;142542.06;;;-3.09;99.85
28354;BME280;15603;50.878;8.036;2023-01-29T08:32:53;142533.66;;;-3.13;100.00
28354;BME280;15603;50.878;8.036;2023-01-29T08:35:20;142572.13;;;-2.97;100.00
28354;BME280;15603;50.878;8.036;2023-01-29T08:37:51;142608.22;;;-2.81;98.63
28354;BME280;15603;50.878;8.036;2023-01-29T08:40:18;142588.97;;;-2.89;98.96
28354;BME280;15603;50.878;8.036;2023-01-29T08:42:45;142574.53;;;-2.96;100.00
28354;BME280;15603;50.878;8.036;2023-01-29T08:45:12;142578.16;;;-2.94;100.00
28354;BME280;15603;50.878;8.036;2023-01-29T08:47:43;142599.81;;;-2.85;99.97
28354;BME280;15603;50.878;8.036;2023-01-29T08:50:10;142615.44;;;-2.78;100.00
28354;BME280;15603;50.878;8.036;2023-01-29T08:52:37;142588.97;;;-2.89;100.00
28354;BME280;15603;50.878;8.036;2023-01-29T08:55:04;142572.13;;;-2.97;100.00
28354;BME280;15603;50.878;8.036;2023-01-29T08:57:31;142623.88;;;-2.74;100.00
28354;BME280;15603;50.878;8.036;2023-01-29T08:59:58;142657.53;;;-2.60;100.00
28354;BME280;15603;50.878;8.036;2023-01-29T09:02:25;142682.84;;;-2.49;100.00
28354;BME280;15603;50.878;8.036;2023-01-29T09:04:52;142716.50;;;-2.35;99.67
28354;BME280;15603;50.878;8.036;2023-01-29T09:07:18;142711.69;;;-2.37;98.93
28354;BME280;15603;50.878;8.036;2023-01-29T09:09:47;142704.50;;;-2.40;98.45
28354;BME280;15603;50.878;8.036;2023-01-29T09:12:14;142724.94;;;-2.31;99.64
28354;BME280;15603;50.878;8.036;2023-01-29T09:14:41;142738.19;;;-2.26;98.46
28354;BME280;15603;50.878;8.036;2023-01-29T09:17:07;142751.41;;;-2.20;99.58
28354;BME280;15603;50.878;8.036;2023-01-29T09:19:35;142759.84;;;-2.17;99.33
28354;BME280;15603;50.878;8.036;2023-01-29T09:22:02;142803.22;;;-1.98;98.98
28354;BME280;15603;50.878;8.036;2023-01-29T09:24:29;142798.41;;;-2.00;98.63
28354;BME280;15603;50.878;8.036;2023-01-29T09:26:56;142832.09;;;-1.86;98.24
28354;BME280;15603;50.878;8.036;2023-01-29T09:29:25;142885.06;;;-1.63;98.63
28354;BME280;15603;50.878;8.036;2023-01-29T09:31:52;142882.66;;;-1.64;98.20
28354;BME280;15603;50.878;8.036;2023-01-29T09:34:19;142909.16;;;-1.53;97.18
28354;BME280;15603;50.878;8.036;2023-01-29T09:36:46;142885.06;;;-1.63;98.02
28354;BME280;15603;50.878;8.036;2023-01-29T09:39:12;142863.41;;;-1.72;98.20
28354;BME280;15603;50.878;8.036;2023-01-29T09:44:23;142904.34;;;-1.55;98.26
28354;BME280;15603;50.878;8.036;2023-01-29T09:46:52;142923.59;;;-1.47;98.84
28354;BME280;15603;50.878;8.036;2023-01-29T09:49:23;142923.59;;;-1.47;98.28
28354;BME280;15603;50.878;8.036;2023-01-29T09:51:53;142926.03;;;-1.46;98.74
28354;BME280;15603;50.878;8.036;2023-01-29T09:54:24;142956.09;;;-1.33;98.95
28354;BME280;15603;50.878;8.036;2023-01-29T09:56:54;142940.47;;;-1.40;97.86
28354;BME280;15603;50.878;8.036;2023-01-29T09:59:22;142976.59;;;-1.24;98.12
28354;BME280;15603;50.878;8.036;2023-01-29T10:27:17;143113.94;;;-0.66;98.36
28354;BME280;15603;50.878;8.036;2023-01-29T10:29:45;143068.16;;;-0.85;99.04
28354;BME280;15603;50.878;8.036;2023-01-29T10:32:14;143080.22;;;-0.80;99.93
28354;BME280;15603;50.878;8.036;2023-01-29T10:34:51;143109.13;;;-0.68;99.19
28354;BME280;15603;50.878;8.036;2023-01-29T10:37:21;143086.22;;;-0.77;99.88
28354;BME280;15603;50.878;8.036;2023-01-29T10:39:49;143087.47;;;-0.77;100.00
28354;BME280;15603;50.878;8.036;2023-01-29T10:42:18;143106.75;;;-0.69;100.00
28354;BME280;15603;50.878;8.036;2023-01-29T10:47:26;143107.94;;;-0.68;100.00
28354;BME280;15603;50.878;8.036;2023-01-29T10:50:02;143135.66;;;-0.56;100.00
28354;BME280;15603;50.878;8.036;2023-01-29T10:55:19;143076.59;;;-0.82;98.98
28354;BME280;15603;50.878;8.036;2023-01-29T10:58:17;143142.91;;;-0.53;99.74
28354;BME280;15603;50.878;8.036;2023-01-29T11:00:41;143126.00;;;-0.61;99.29
28354;BME280;15603;50.878;8.036;2023-01-29T11:03:25;143186.28;;;-0.35;99.39
28354;BME280;15603;50.878;8.036;2023-01-29T11:06:00;143179.06;;;-0.38;97.06
28354;BME280;15603;50.878;8.036;2023-01-29T11:08:37;143273.09;;;0.02;97.65
28354;BME280;15603;50.878;8.036;2023-01-29T11:11:15;143316.50;;;0.21;95.81
28354;BME280;15603;50.878;8.036;2023-01-29T11:14:04;143338.22;;;0.30;94.61
28354;BME280;15603;50.878;8.036;2023-01-29T11:17:06;143345.47;;;0.33;94.23
28354;BME280;15603;50.878;8.036;2023-01-29T11:19:39;143456.44;;;0.80;91.26
28354;BME280;15603;50.878;8.036;2023-01-29T11:22:13;143405.78;;;0.58;90.59
28354;BME280;15603;50.878;8.036;2023-01-29T11:28:48;143450.41;;;0.77;90.96
28354;BME280;15603;50.878;8.036;2023-01-29T11:37:44;143357.50;;;0.38;94.91
28354;BME280;15603;50.878;8.036;2023-01-29T11:40:31;143350.28;;;0.35;94.26
28354;BME280;15603;50.878;8.036;2023-01-29T11:43:33;143323.75;;;0.24;94.33
28354;BME280;15603;50.878;8.036;2023-01-29T11:45:52;143432.31;;;0.70;94.23
28354;BME280;15603;50.878;8.036;2023-01-29T11:48:22;143490.25;;;0.94;93.85
28354;BME280;15603;50.878;8.036;2023-01-29T11:50:53;143504.72;;;1.01;93.74
28354;BME280;15603;50.878;8.036;2023-01-29T11:53:39;143434.72;;;0.71;93.33
28354;BME280;15603;50.878;8.036;2023-01-29T11:56:28;143444.34;;;0.75;93.76
28354;BME280;15603;50.878;8.036;2023-01-29T11:58:55;143403.34;;;0.57;95.47
28354;BME280;15603;50.878;8.036;2023-01-29T12:01:36;143408.16;;;0.59;93.77
28354;BME280;15603;50.878;8.036;2023-01-29T12:04:12;143384.03;;;0.49;95.17
28354;BME280;15603;50.878;8.036;2023-01-29T12:06:41;143433.50;;;0.70;94.83
28354;BME280;15603;50.878;8.036;2023-01-29T12:09:12;143369.59;;;0.43;94.35
28354;BME280;15603;50.878;8.036;2023-01-29T12:11:42;143388.88;;;0.51;96.69
28354;BME280;15603;50.878;8.036;2023-01-29T12:16:52;143490.25;;;0.94;93.01
28354;BME280;15603;50.878;8.036;2023-01-29T12:19:26;143552.97;;;1.21;92.32
28354;BME280;15603;50.878;8.036;2023-01-29T12:21:59;143504.72;;;1.01;94.12
28354;BME280;15603;50.878;8.036;2023-01-29T12:27:01;143543.31;;;1.17;93.09
28354;BME280;15603;50.878;8.036;2023-01-29T12:32:40;143516.75;;;1.06;92.36
28354;BME280;15603;50.878;8.036;2023-01-29T12:43:30;143480.56;;;0.90;94.60
28354;BME280;15603;50.878;8.036;2023-01-29T12:51:14;143524.00;;;1.09;94.21
28354;BME280;15603;50.878;8.036;2023-01-29T12:57:09;143396.13;;;0.54;93.84
28354;BME280;15603;50.878;8.036;2023-01-29T13:13:14;143598.88;;;1.41;93.18
28354;BME280;15603;50.878;8.036;2023-01-29T13:24:37;143567.47;;;1.27;93.21
28354;BME280;15603;50.878;8.036;2023-01-29T13:27:05;143566.25;;;1.27;94.39
28354;BME280;15603;50.878;8.036;2023-01-29T13:29:32;143610.91;;;1.46;93.71
28354;BME280;15603;50.878;8.036;2023-01-29T13:32:00;143586.78;;;1.35;93.78
28354;BME280;15603;50.878;8.036;2023-01-29T13:34:33;143612.09;;;1.46;94.04
28354;BME280;15603;50.878;8.036;2023-01-29T13:37:02;143592.81;;;1.38;93.81
28354;BME280;15603;50.878;8.036;2023-01-29T13:39:35;143572.31;;;1.29;93.98
28354;BME280;15603;50.878;8.036;2023-01-29T13:42:16;143538.50;;;1.15;94.33
28354;BME280;15603;50.878;8.036;2023-01-29T13:44:54;143536.09;;;1.14;94.65
28354;BME280;15603;50.878;8.036;2023-01-29T13:47:23;143567.47;;;1.27;94.92
28354;BME280;15603;50.878;8.036;2023-01-29T13:50:08;143603.69;;;1.43;93.98
28354;BME280;15603;50.878;8.036;2023-01-29T13:52:39;143625.41;;;1.52;93.26
28354;BME280;15603;50.878;8.036;2023-01-29T13:57:46;143569.88;;;1.28;94.47
28354;BME280;15603;50.878;8.036;2023-01-29T14:02:47;143612.09;;;1.46;93.05
28354;BME280;15603;50.878;8.036;2023-01-29T14:10:26;143584.34;;;1.34;94.29
28354;BME280;15603;50.878;8.036;2023-01-29T14:12:54;143572.31;;;1.29;94.04
28354;BME280;15603;50.878;8.036;2023-01-29T14:15:40;143577.13;;;1.31;95.02
28354;BME280;15603;50.878;8.036;2023-01-29T14:21:20;143618.19;;;1.49;93.78
28354;BME280;15603;50.878;8.036;2023-01-29T14:31:28;143574.69;;;1.30;94.32
28354;BME280;15603;50.878;8.036;2023-01-29T14:33:59;143548.13;;;1.19;94.71
28354;BME280;15603;50.878;8.036;2023-01-29T14:36:26;143525.22;;;1.09;95.38
28354;BME280;15603;50.878;8.036;2023-01-29T14:38:53;143526.44;;;1.10;95.48
28354;BME280;15603;50.878;8.036;2023-01-29T14:41:30;143545.75;;;1.18;95.76
28354;BME280;15603;50.878;8.036;2023-01-29T14:46:43;143560.22;;;1.24;94.70
28354;BME280;15603;50.878;8.036;2023-01-29T14:49:10;143546.94;;;1.18;94.99
28354;BME280;15603;50.878;8.036;2023-01-29T14:51:38;143509.53;;;1.03;95.36
28354;BME280;15603;50.878;8.036;2023-01-29T14:56:53;143521.56;;;1.08;95.20
28354;BME280;15603;50.878;8.036;2023-01-29T14:59:30;143495.06;;;0.96;95.48
28354;BME280;15603;50.878;8.036;2023-01-29T15:02:01;143484.19;;;0.92;96.25
28354;BME280;15603;50.878;8.036;2023-01-29T15:04:41;143487.81;;;0.93;95.91
28354;BME280;15603;50.878;8.036;2023-01-29T15:09:45;143456.44;;;0.80;95.35
28354;BME280;15603;50.878;8.036;2023-01-29T15:12:31;143445.59;;;0.75;96.45
28354;BME280;15603;50.878;8.036;2023-01-29T15:15:02;143450.41;;;0.77;96.71
28354;BME280;15603;50.878;8.036;2023-01-29T15:17:44;143446.78;;;0.76;96.90
28354;BME280;15603;50.878;8.036;2023-01-29T15:23:00;143497.47;;;0.97;93.68
28354;BME280;15603;50.878;8.036;2023-01-29T15:25:35;143502.28;;;1.00;93.63
28354;BME280;15603;50.878;8.036;2023-01-29T15:28:03;143516.75;;;1.06;93.62
28354;BME280;15603;50.878;8.036;2023-01-29T15:30:35;143364.75;;;0.41;93.59
28354;BME280;15603;50.878;8.036;2023-01-29T15:33:03;143483.00;;;0.91;94.29
28354;BME280;15603;50.878;8.036;2023-01-29T15:35:34;143530.03;;;1.11;92.93
28354;BME280;15603;50.878;8.036;2023-01-29T15:38:03;143516.75;;;1.06;92.47
28354;BME280;15603;50.878;8.036;2023-01-29T15:40:30;143503.47;;;1.00;93.21
28354;BME280;15603;50.878;8.036;2023-01-29T15:42:57;143497.47;;;0.97;93.20
28354;BME280;15603;50.878;8.036;2023-01-29T15:45:28;143507.09;;;1.02;93.77
28354;BME280;15603;50.878;8.036;2023-01-29T15:47:58;143495.06;;;0.96;93.49
28354;BME280;15603;50.878;8.036;2023-01-29T15:50:26;143458.88;;;0.81;94.71
28354;BME280;15603;50.878;8.036;2023-01-29T15:52:53;143458.88;;;0.81;96.10
28354;BME280;15603;50.878;8.036;2023-01-29T15:55:24;143458.88;;;0.81;95.27